createdAt,value
2023-04-26T00:00:19.039Z,4
2023-04-26T00:01:25.957Z,3
2023-04-26T00:02:32.980Z,3
2023-04-26T00:03:39.996Z,4
2023-04-26T00:04:48.788Z,4
2023-04-26T00:05:58.532Z,3
2023-04-26T00:07:05.414Z,3
2023-04-26T00:08:12.275Z,3
2023-04-26T00:09:19.730Z,3
2023-04-26T00:10:27.672Z,3
2023-04-26T00:11:35.520Z,3
2023-04-26T00:12:42.311Z,3
2023-04-26T00:13:49.136Z,3
2023-04-26T00:14:55.998Z,3
2023-04-26T00:16:03.098Z,3
2023-04-26T00:17:11.607Z,3
2023-04-26T00:18:18.502Z,3
2023-04-26T00:19:28.548Z,3
2023-04-26T00:20:35.313Z,3
2023-04-26T00:21:43.964Z,3
2023-04-26T00:22:50.739Z,3
2023-04-26T00:23:57.636Z,3
2023-04-26T00:25:04.607Z,3
2023-04-26T00:26:11.957Z,3
2023-04-26T00:27:18.808Z,3
2023-04-26T00:28:28.296Z,3
2023-04-26T00:29:35.119Z,4
2023-04-26T00:30:41.878Z,3
2023-04-26T00:31:48.936Z,3
2023-04-26T00:32:55.801Z,3
2023-04-26T00:34:02.653Z,3
2023-04-26T00:35:09.528Z,3
2023-04-26T00:36:16.363Z,3
2023-04-26T00:37:23.220Z,3
2023-04-26T00:38:31.017Z,4
2023-04-26T00:39:37.840Z,3
2023-04-26T00:40:44.645Z,3
2023-04-26T00:41:51.472Z,4
2023-04-26T00:42:58.356Z,3
2023-04-26T00:44:06.144Z,3
2023-04-26T00:45:13.877Z,3
2023-04-26T00:46:20.763Z,3
2023-04-26T00:47:27.635Z,3
2023-04-26T00:48:34.432Z,3
2023-04-26T00:49:41.346Z,4
2023-04-26T00:50:48.217Z,3
2023-04-26T00:51:55.104Z,3
2023-04-26T00:53:01.945Z,3
2023-04-26T00:54:08.753Z,4
2023-04-26T00:55:15.578Z,3
2023-04-26T00:56:22.580Z,4
2023-04-26T00:57:29.604Z,4
2023-04-26T00:58:36.565Z,4
2023-04-26T00:59:43.410Z,4
2023-04-26T01:00:51.045Z,4
2023-04-26T01:01:58.168Z,4
2023-04-26T01:03:07.864Z,4
2023-04-26T01:04:14.692Z,4
2023-04-26T01:05:21.459Z,4
2023-04-26T01:06:28.389Z,4
2023-04-26T01:07:38.077Z,4
2023-04-26T01:08:46.092Z,4
2023-04-26T01:09:52.928Z,4
2023-04-26T01:10:59.820Z,4
2023-04-26T01:12:06.642Z,4
2023-04-26T01:13:13.426Z,4
2023-04-26T01:14:20.272Z,4
2023-04-26T01:15:27.088Z,4
2023-04-26T01:16:33.968Z,4
2023-04-26T01:17:40.989Z,3
2023-04-26T01:18:47.878Z,3
2023-04-26T01:19:54.657Z,3
2023-04-26T01:21:03.331Z,3
2023-04-26T01:22:08.315Z,3
2023-04-26T01:23:15.149Z,3
2023-04-26T01:24:22.815Z,4
2023-04-26T01:25:29.759Z,3
2023-04-26T01:26:36.616Z,3
2023-04-26T01:27:43.477Z,3
2023-04-26T01:28:50.569Z,4
2023-04-26T01:29:59.296Z,4
2023-04-26T01:31:07.064Z,4
2023-04-26T01:32:13.917Z,5
2023-04-26T01:33:21.347Z,4
2023-04-26T01:34:29.290Z,3
2023-04-26T01:35:36.096Z,4
2023-04-26T01:36:42.962Z,3
2023-04-26T01:37:51.639Z,4
2023-04-26T01:38:58.348Z,4
2023-04-26T01:40:05.128Z,4
2023-04-26T01:41:12.244Z,4
2023-04-26T01:42:19.055Z,4
2023-04-26T01:43:25.941Z,4
2023-04-26T01:44:32.764Z,4
2023-04-26T01:45:39.512Z,4
2023-04-26T01:46:46.413Z,5
2023-04-26T01:47:53.218Z,4
2023-04-26T01:49:00.145Z,5
2023-04-26T01:50:09.711Z,5
2023-04-26T01:51:16.524Z,5
2023-04-26T01:52:23.487Z,5
2023-04-26T01:53:30.300Z,5
2023-04-26T01:54:37.118Z,5
2023-04-26T01:55:44.000Z,5
2023-04-26T01:56:50.784Z,5
2023-04-26T01:57:57.552Z,4
2023-04-26T01:59:05.415Z,4
2023-04-26T02:00:12.258Z,4
2023-04-26T02:01:19.154Z,4
2023-04-26T02:02:26.097Z,4
2023-04-26T02:03:35.669Z,4
2023-04-26T02:04:42.486Z,4
2023-04-26T02:05:49.294Z,4
2023-04-26T02:06:56.123Z,4
2023-04-26T02:08:02.970Z,4
2023-04-26T02:09:10.718Z,4
2023-04-26T02:10:17.594Z,4
2023-04-26T02:11:24.544Z,4
2023-04-26T02:12:31.310Z,5
2023-04-26T02:13:38.141Z,4
2023-04-26T02:14:45.802Z,4
2023-04-26T02:15:54.462Z,4
2023-04-26T02:17:01.229Z,4
2023-04-26T02:18:08.039Z,4
2023-04-26T02:19:14.868Z,4
2023-04-26T02:20:23.376Z,4
2023-04-26T02:21:30.179Z,4
2023-04-26T02:22:37.087Z,4
2023-04-26T02:23:43.900Z,4
2023-04-26T02:24:50.746Z,5
2023-04-26T02:25:58.600Z,4
2023-04-26T02:27:05.398Z,4
2023-04-26T02:28:12.271Z,4
2023-04-26T02:29:24.581Z,4
2023-04-26T02:30:26.184Z,4
2023-04-26T02:31:33.068Z,5
2023-04-26T02:32:40.902Z,4
2023-04-26T02:33:47.704Z,4
2023-04-26T02:34:56.275Z,4
2023-04-26T02:36:03.162Z,4
2023-04-26T02:37:11.577Z,5
2023-04-26T02:38:18.023Z,4
2023-04-26T02:39:24.851Z,4
2023-04-26T02:40:31.655Z,4
2023-04-26T02:41:40.397Z,4
2023-04-26T02:42:47.560Z,4
2023-04-26T02:43:54.399Z,5
2023-04-26T02:45:01.256Z,4
2023-04-26T02:46:09.220Z,5
2023-04-26T02:47:16.024Z,4
2023-04-26T02:48:22.797Z,5
2023-04-26T02:49:29.754Z,4
2023-04-26T02:50:39.992Z,4
2023-04-26T02:51:46.965Z,4
2023-04-26T02:52:54.688Z,4
2023-04-26T02:54:01.514Z,4
2023-04-26T02:55:08.385Z,4
2023-04-26T02:56:15.285Z,4
2023-04-26T02:57:22.353Z,4
2023-04-26T02:58:29.225Z,4
2023-04-26T02:59:36.179Z,4
2023-04-26T03:00:43.134Z,4
2023-04-26T03:01:50.865Z,4
2023-04-26T03:02:57.734Z,5
2023-04-26T03:04:04.849Z,4
2023-04-26T03:05:11.656Z,4
2023-04-26T03:06:18.495Z,5
2023-04-26T03:07:26.183Z,5
2023-04-26T03:08:33.856Z,4
2023-04-26T03:09:40.687Z,4
2023-04-26T03:10:48.410Z,4
2023-04-26T03:11:55.322Z,4
2023-04-26T03:13:02.327Z,4
2023-04-26T03:14:09.164Z,4
2023-04-26T03:15:15.989Z,4
2023-04-26T03:16:23.216Z,4
2023-04-26T03:17:30.015Z,4
2023-04-26T03:18:36.857Z,4
2023-04-26T03:19:46.784Z,4
2023-04-26T03:20:53.668Z,4
2023-04-26T03:22:00.517Z,4
2023-04-26T03:23:07.299Z,4
2023-04-26T03:24:14.403Z,4
2023-04-26T03:25:22.246Z,4
2023-04-26T03:26:29.139Z,4
2023-04-26T03:27:35.938Z,4
2023-04-26T03:28:42.740Z,5
2023-04-26T03:29:49.768Z,4
2023-04-26T03:30:56.626Z,5
2023-04-26T03:32:08.300Z,4
2023-04-26T03:33:15.396Z,5
2023-04-26T03:34:24.109Z,4
2023-04-26T03:35:31.059Z,5
2023-04-26T03:36:37.934Z,5
2023-04-26T03:37:44.760Z,5
2023-04-26T03:38:51.841Z,5
2023-04-26T03:39:58.692Z,5
2023-04-26T03:41:05.488Z,5
2023-04-26T03:42:12.419Z,5
2023-04-26T03:43:19.230Z,5
2023-04-26T03:44:26.030Z,6
2023-04-26T03:45:33.035Z,6
2023-04-26T03:46:39.740Z,6
2023-04-26T03:47:46.616Z,5
2023-04-26T03:48:53.644Z,5
2023-04-26T03:50:00.356Z,6
2023-04-26T03:51:07.253Z,6
2023-04-26T03:52:15.700Z,5
2023-04-26T03:53:22.558Z,6
2023-04-26T03:54:29.424Z,5
2023-04-26T03:55:36.335Z,6
2023-04-26T03:56:44.070Z,6
2023-04-26T03:57:51.028Z,6
2023-04-26T03:58:57.911Z,6
2023-04-26T04:00:06.491Z,6
2023-04-26T04:01:16.049Z,5
2023-04-26T04:02:22.953Z,5
2023-04-26T04:03:32.750Z,4
2023-04-26T04:04:39.589Z,4
2023-04-26T04:05:46.489Z,4
2023-04-26T04:06:53.396Z,5
2023-04-26T04:08:00.260Z,4
2023-04-26T04:09:07.088Z,4
2023-04-26T04:10:15.697Z,5
2023-04-26T04:11:22.538Z,5
2023-04-26T04:12:29.347Z,5
2023-04-26T04:13:37.100Z,5
2023-04-26T04:14:43.939Z,5
2023-04-26T04:15:50.856Z,5
2023-04-26T04:16:57.639Z,5
2023-04-26T04:18:06.844Z,5
2023-04-26T04:19:13.652Z,5
2023-04-26T04:20:20.524Z,5
2023-04-26T04:21:27.466Z,5
2023-04-26T04:22:34.286Z,5
2023-04-26T04:23:41.086Z,5
2023-04-26T04:24:47.931Z,5
2023-04-26T04:25:54.893Z,5
2023-04-26T04:27:01.738Z,5
2023-04-26T04:28:08.644Z,5
2023-04-26T04:29:15.574Z,5
2023-04-26T04:30:22.393Z,5
2023-04-26T04:31:29.329Z,5
2023-04-26T04:32:38.874Z,5
2023-04-26T04:33:50.795Z,5
2023-04-26T04:34:58.882Z,4
2023-04-26T04:36:05.909Z,5
2023-04-26T04:37:12.767Z,5
2023-04-26T04:38:19.539Z,5
2023-04-26T04:39:26.846Z,4
2023-04-26T04:40:33.663Z,5
2023-04-26T04:41:41.445Z,5
2023-04-26T04:42:48.337Z,5
2023-04-26T04:43:55.108Z,4
2023-04-26T04:45:03.021Z,4
2023-04-26T04:46:12.763Z,5
2023-04-26T04:47:18.576Z,5
2023-04-26T04:48:25.466Z,4
2023-04-26T04:49:32.445Z,4
2023-04-26T04:50:39.284Z,5
2023-04-26T04:51:46.129Z,5
2023-04-26T04:52:52.980Z,4
2023-04-26T04:53:59.852Z,4
2023-04-26T04:55:13.326Z,4
2023-04-26T04:56:20.651Z,4
2023-04-26T04:57:29.139Z,4
2023-04-26T04:58:36.229Z,4
2023-04-26T04:59:42.884Z,4
2023-04-26T05:00:49.710Z,3
2023-04-26T05:01:57.786Z,4
2023-04-26T05:03:04.770Z,3
2023-04-26T05:04:11.583Z,4
2023-04-26T05:05:18.313Z,4
2023-04-26T05:06:25.096Z,3
2023-04-26T05:07:31.979Z,3
2023-04-26T05:08:38.771Z,3
2023-04-26T05:09:48.505Z,3
2023-04-26T05:10:55.378Z,3
2023-04-26T05:12:02.382Z,3
2023-04-26T05:13:09.264Z,3
2023-04-26T05:14:16.120Z,3
2023-04-26T05:15:22.911Z,3
2023-04-26T05:16:29.749Z,3
2023-04-26T05:17:36.805Z,3
2023-04-26T05:18:44.706Z,3
2023-04-26T05:19:51.503Z,3
2023-04-26T05:20:58.330Z,3
2023-04-26T05:22:05.141Z,3
2023-04-26T05:23:13.685Z,3
2023-04-26T05:24:20.867Z,3
2023-04-26T05:25:27.830Z,3
2023-04-26T05:26:34.620Z,3
2023-04-26T05:27:41.463Z,3
2023-04-26T05:28:48.297Z,3
2023-04-26T05:29:55.143Z,3
2023-04-26T05:31:02.051Z,3
2023-04-26T05:32:09.047Z,3
2023-04-26T05:33:15.762Z,2
2023-04-26T05:34:22.673Z,3
2023-04-26T05:35:31.389Z,2
2023-04-26T05:36:38.288Z,3
2023-04-26T05:37:45.263Z,3
2023-04-26T05:38:52.111Z,3
2023-04-26T05:39:58.932Z,3
2023-04-26T05:41:05.815Z,2
2023-04-26T05:42:16.331Z,3
2023-04-26T05:43:21.592Z,3
2023-04-26T05:44:28.460Z,2
2023-04-26T05:45:35.351Z,2
2023-04-26T05:46:42.147Z,3
2023-04-26T05:47:49.868Z,2
2023-04-26T05:48:56.670Z,2
2023-04-26T05:50:04.395Z,3
2023-04-26T05:51:12.771Z,3
2023-04-26T05:52:19.569Z,3
2023-04-26T05:53:29.108Z,3
2023-04-26T05:54:36.059Z,2
2023-04-26T05:55:43.114Z,3
2023-04-26T05:56:50.118Z,3
2023-04-26T05:57:56.957Z,3
2023-04-26T05:59:03.940Z,3
2023-04-26T06:00:10.769Z,3
2023-04-26T06:01:17.980Z,3
2023-04-26T06:02:28.615Z,3
2023-04-26T06:03:35.670Z,3
2023-04-26T06:04:42.276Z,2
2023-04-26T06:05:50.327Z,2
2023-04-26T06:06:57.093Z,3
2023-04-26T06:08:03.916Z,3
2023-04-26T06:09:13.011Z,3
2023-04-26T06:10:19.939Z,3
2023-04-26T06:11:26.803Z,3
2023-04-26T06:12:33.700Z,3
2023-04-26T06:13:41.623Z,3
2023-04-26T06:14:48.432Z,3
2023-04-26T06:15:58.501Z,3
2023-04-26T06:17:05.464Z,3
2023-04-26T06:18:12.278Z,3
2023-04-26T06:19:19.069Z,3
2023-04-26T06:20:26.926Z,3
2023-04-26T06:21:33.912Z,3
2023-04-26T06:22:40.770Z,3
2023-04-26T06:23:51.410Z,3
2023-04-26T06:24:57.971Z,3
2023-04-26T06:26:04.784Z,3
2023-04-26T06:27:11.634Z,3
2023-04-26T06:28:20.099Z,3
2023-04-26T06:29:26.981Z,3
2023-04-26T06:30:34.708Z,3
2023-04-26T06:31:41.603Z,3
2023-04-26T06:32:48.625Z,3
2023-04-26T06:33:55.446Z,3
2023-04-26T06:35:02.885Z,3
2023-04-26T06:36:09.957Z,3
2023-04-26T06:37:16.785Z,3
2023-04-26T06:38:23.526Z,3
2023-04-26T06:39:30.301Z,3
2023-04-26T06:40:37.161Z,3
2023-04-26T06:41:43.957Z,3
2023-04-26T06:42:50.823Z,3
2023-04-26T06:43:57.605Z,3
2023-04-26T06:45:04.361Z,2
2023-04-26T06:46:11.729Z,3
2023-04-26T06:47:18.488Z,2
2023-04-26T06:48:25.335Z,3
2023-04-26T06:49:32.119Z,2
2023-04-26T06:50:38.892Z,3
2023-04-26T06:51:45.710Z,3
2023-04-26T06:52:52.728Z,3
2023-04-26T06:53:59.566Z,2
2023-04-26T06:55:06.400Z,2
2023-04-26T06:56:13.232Z,2
2023-04-26T06:57:20.092Z,2
2023-04-26T06:58:33.862Z,3
2023-04-26T06:59:40.942Z,3
2023-04-26T07:00:47.954Z,3
2023-04-26T07:01:54.704Z,2
2023-04-26T07:03:01.568Z,2
2023-04-26T07:04:09.572Z,2
2023-04-26T07:05:17.026Z,2
2023-04-26T07:06:23.790Z,3
2023-04-26T07:07:31.646Z,3
2023-04-26T07:08:38.740Z,3
2023-04-26T07:09:45.562Z,3
2023-04-26T07:10:52.545Z,3
2023-04-26T07:11:59.361Z,3
2023-04-26T07:13:07.982Z,3
2023-04-26T07:14:13.885Z,3
2023-04-26T07:15:20.742Z,3
2023-04-26T07:16:27.621Z,3
2023-04-26T07:17:34.386Z,3
2023-04-26T07:18:41.143Z,3
2023-04-26T07:19:47.957Z,3
2023-04-26T07:20:55.879Z,3
2023-04-26T07:22:02.640Z,3
2023-04-26T07:23:09.477Z,3
2023-04-26T07:24:16.386Z,3
2023-04-26T07:25:23.185Z,3
2023-04-26T07:26:32.504Z,3
2023-04-26T07:27:39.518Z,3
2023-04-26T07:28:46.287Z,3
2023-04-26T07:29:56.369Z,3
2023-04-26T07:31:03.174Z,2
2023-04-26T07:32:10.114Z,2
2023-04-26T07:33:16.944Z,3
2023-04-26T07:34:23.761Z,2
2023-04-26T07:35:30.610Z,2
2023-04-26T07:36:37.360Z,2
2023-04-26T07:37:44.143Z,2
2023-04-26T07:38:50.934Z,2
2023-04-26T07:39:57.736Z,2
2023-04-26T07:41:05.864Z,2
2023-04-26T07:42:13.628Z,2
2023-04-26T07:43:20.396Z,2
2023-04-26T07:44:27.130Z,2
2023-04-26T07:45:34.020Z,2
2023-04-26T07:46:40.829Z,2
2023-04-26T07:47:47.771Z,2
2023-04-26T07:48:54.464Z,2
2023-04-26T07:50:01.334Z,3
2023-04-26T07:51:08.422Z,3
2023-04-26T07:52:15.417Z,2
2023-04-26T07:53:22.303Z,3
2023-04-26T07:54:29.095Z,3
2023-04-26T07:55:35.940Z,2
2023-04-26T07:56:43.639Z,3
2023-04-26T07:57:50.746Z,3
2023-04-26T07:58:57.668Z,3
2023-04-26T08:00:07.367Z,3
2023-04-26T08:01:17.000Z,3
2023-04-26T08:02:33.142Z,2
2023-04-26T08:03:32.560Z,2
2023-04-26T08:04:39.311Z,2
2023-04-26T08:05:46.368Z,2
2023-04-26T08:06:53.662Z,3
2023-04-26T08:08:00.488Z,2
2023-04-26T08:09:07.517Z,2
2023-04-26T08:10:14.365Z,2
2023-04-26T08:11:21.328Z,2
2023-04-26T08:12:28.180Z,2
2023-04-26T08:13:35.010Z,2
2023-04-26T08:14:41.930Z,2
2023-04-26T08:15:48.792Z,2
2023-04-26T08:16:55.676Z,2
2023-04-26T08:18:02.591Z,2
2023-04-26T08:19:09.460Z,2
2023-04-26T08:20:17.265Z,2
2023-04-26T08:21:24.137Z,2
2023-04-26T08:22:30.915Z,2
2023-04-26T08:23:37.789Z,2
2023-04-26T08:24:44.737Z,2
2023-04-26T08:25:51.702Z,2
2023-04-26T08:26:58.556Z,2
2023-04-26T08:28:05.382Z,2
2023-04-26T08:29:12.187Z,2
2023-04-26T08:30:18.967Z,2
2023-04-26T08:31:25.804Z,2
2023-04-26T08:32:32.858Z,1
2023-04-26T08:33:39.630Z,2
2023-04-26T08:34:46.412Z,2
2023-04-26T08:35:53.255Z,2
2023-04-26T08:37:00.120Z,1
2023-04-26T08:38:07.161Z,2
2023-04-26T08:39:13.929Z,2
2023-04-26T08:40:20.880Z,1
2023-04-26T08:41:27.729Z,1
2023-04-26T08:42:35.829Z,1
2023-04-26T08:43:41.432Z,1
2023-04-26T08:44:48.354Z,2
2023-04-26T08:45:55.167Z,2
2023-04-26T08:47:01.935Z,2
2023-04-26T08:48:16.827Z,2
2023-04-26T08:49:23.614Z,2
2023-04-26T08:50:33.224Z,2
2023-04-26T08:51:40.044Z,2
2023-04-26T08:52:46.849Z,1
2023-04-26T08:53:54.120Z,1
2023-04-26T08:55:00.850Z,1
2023-04-26T08:56:07.932Z,1
2023-04-26T08:57:14.708Z,1
2023-04-26T08:58:21.526Z,1
2023-04-26T08:59:28.308Z,1
2023-04-26T09:00:35.228Z,1
2023-04-26T09:01:42.105Z,1
2023-04-26T09:02:48.971Z,1
2023-04-26T09:03:55.999Z,1
2023-04-26T09:05:02.745Z,1
2023-04-26T09:06:09.629Z,1
2023-04-26T09:07:16.451Z,2
2023-04-26T09:08:31.228Z,1
2023-04-26T09:09:38.173Z,1
2023-04-26T09:10:44.915Z,2
2023-04-26T09:11:51.681Z,2
2023-04-26T09:13:01.452Z,1
2023-04-26T09:14:08.181Z,2
2023-04-26T09:15:14.973Z,2
2023-04-26T09:16:21.925Z,3
2023-04-26T09:17:39.103Z,4
2023-04-26T09:18:45.810Z,3
2023-04-26T09:19:52.593Z,2
2023-04-26T09:20:59.537Z,1
2023-04-26T09:22:06.294Z,1
2023-04-26T09:23:13.216Z,2
2023-04-26T09:24:20.004Z,1
2023-04-26T09:25:26.768Z,1
2023-04-26T09:26:33.586Z,1
2023-04-26T09:27:40.448Z,1
2023-04-26T09:28:47.421Z,2
2023-04-26T09:29:54.259Z,1
2023-04-26T09:31:06.180Z,1
2023-04-26T09:32:12.942Z,1
2023-04-26T09:33:19.832Z,2
2023-04-26T09:34:26.569Z,1
2023-04-26T09:35:33.437Z,1
2023-04-26T09:36:40.261Z,1
2023-04-26T09:37:58.673Z,2
2023-04-26T09:39:05.956Z,1
2023-04-26T09:40:12.805Z,2
2023-04-26T09:41:22.490Z,1
2023-04-26T09:42:29.312Z,1
2023-04-26T09:43:36.102Z,1
2023-04-26T09:44:42.885Z,1
2023-04-26T09:45:49.775Z,1
2023-04-26T09:46:59.201Z,1
2023-04-26T09:48:09.016Z,1
2023-04-26T09:49:21.858Z,1
2023-04-26T09:50:28.752Z,1
2023-04-26T09:51:35.631Z,1
2023-04-26T09:52:42.429Z,1
2023-04-26T09:53:49.433Z,1
2023-04-26T09:54:56.349Z,1
2023-04-26T09:56:03.213Z,1
2023-04-26T09:57:15.596Z,1
2023-04-26T09:58:22.409Z,1
2023-04-26T09:59:29.180Z,1
2023-04-26T10:00:44.073Z,1
2023-04-26T10:01:50.930Z,1
2023-04-26T10:02:57.950Z,1
2023-04-26T10:04:04.681Z,1
2023-04-26T10:05:11.389Z,1
2023-04-26T10:06:18.229Z,1
2023-04-26T10:07:25.014Z,1
2023-04-26T10:08:31.801Z,1
2023-04-26T10:09:38.669Z,1
2023-04-26T10:10:45.497Z,1
2023-04-26T10:11:52.330Z,1
2023-04-26T10:12:59.132Z,1
2023-04-26T10:14:05.912Z,1
2023-04-26T10:15:12.901Z,1
2023-04-26T10:16:19.832Z,1
2023-04-26T10:17:26.635Z,2
2023-04-26T10:18:33.438Z,1
2023-04-26T10:19:40.248Z,1
2023-04-26T10:20:47.010Z,1
2023-04-26T10:21:53.791Z,1
2023-04-26T10:23:00.604Z,1
2023-04-26T10:24:07.364Z,1
2023-04-26T10:25:14.120Z,1
2023-04-26T10:26:21.978Z,1
2023-04-26T10:27:39.291Z,1
2023-04-26T10:28:46.149Z,1
2023-04-26T10:29:52.912Z,1
2023-04-26T10:30:59.801Z,1
2023-04-26T10:32:06.736Z,1
2023-04-26T10:33:13.690Z,1
2023-04-26T10:34:20.459Z,1
2023-04-26T10:35:27.283Z,1
2023-04-26T10:36:34.103Z,1
2023-04-26T10:37:41.845Z,1
2023-04-26T10:38:59.023Z,1
2023-04-26T10:40:17.052Z,1
2023-04-26T10:41:34.265Z,0
2023-04-26T10:42:41.868Z,1
2023-04-26T10:43:48.739Z,1
2023-04-26T10:44:55.453Z,1
2023-04-26T10:46:02.496Z,1
2023-04-26T10:47:19.691Z,1
2023-04-26T10:48:29.476Z,1
2023-04-26T10:49:36.217Z,1
2023-04-26T10:50:45.933Z,1
2023-04-26T10:52:03.169Z,1
2023-04-26T10:53:15.210Z,1
2023-04-26T10:54:22.294Z,1
2023-04-26T10:55:29.114Z,1
2023-04-26T10:56:41.705Z,1
2023-04-26T10:57:51.334Z,1
2023-04-26T10:58:58.233Z,1
2023-04-26T11:00:10.384Z,1
2023-04-26T11:01:20.140Z,1
2023-04-26T11:02:27.828Z,1
2023-04-26T11:03:45.134Z,1
2023-04-26T11:05:00.645Z,1
2023-04-26T11:06:07.544Z,1
2023-04-26T11:07:17.046Z,1
2023-04-26T11:08:34.337Z,1
2023-04-26T11:09:43.233Z,1
2023-04-26T11:10:52.941Z,1
2023-04-26T11:12:04.913Z,1
2023-04-26T11:13:14.413Z,1
2023-04-26T11:14:21.413Z,1
2023-04-26T11:15:28.337Z,1
2023-04-26T11:16:35.359Z,1
2023-04-26T11:17:42.096Z,1
2023-04-26T11:18:48.953Z,1
2023-04-26T11:19:55.849Z,0
2023-04-26T11:21:03.463Z,0
2023-04-26T11:22:10.255Z,0
2023-04-26T11:23:17.059Z,0
2023-04-26T11:24:23.861Z,0
2023-04-26T11:25:30.704Z,1
2023-04-26T11:26:37.765Z,0
2023-04-26T11:27:44.633Z,1
2023-04-26T11:28:51.745Z,1
2023-04-26T11:29:58.491Z,1
2023-04-26T11:31:06.130Z,1
2023-04-26T11:32:12.918Z,1
2023-04-26T11:33:19.815Z,1
2023-04-26T11:34:26.613Z,0
2023-04-26T11:35:39.458Z,0
2023-04-26T11:36:46.283Z,1
2023-04-26T11:37:53.986Z,1
2023-04-26T11:39:00.947Z,1
2023-04-26T11:40:07.761Z,1
2023-04-26T11:41:14.833Z,1
2023-04-26T11:42:21.740Z,1
2023-04-26T11:43:28.780Z,1
2023-04-26T11:44:35.571Z,1
2023-04-26T11:45:42.367Z,1
2023-04-26T11:46:49.313Z,1
2023-04-26T11:47:56.025Z,1
2023-04-26T11:49:02.866Z,1
2023-04-26T11:50:09.677Z,1
2023-04-26T11:51:16.524Z,1
2023-04-26T11:52:23.357Z,1
2023-04-26T11:53:30.241Z,1
2023-04-26T11:54:42.861Z,1
2023-04-26T11:55:49.830Z,1
2023-04-26T11:56:56.640Z,1
2023-04-26T11:58:03.500Z,1
2023-04-26T11:59:13.038Z,1
2023-04-26T12:00:19.832Z,1
2023-04-26T12:01:27.125Z,1
2023-04-26T12:02:33.893Z,1
2023-04-26T12:03:40.993Z,1
2023-04-26T12:04:47.917Z,1
2023-04-26T12:05:54.461Z,1
2023-04-26T12:07:01.306Z,1
2023-04-26T12:08:08.094Z,1
2023-04-26T12:09:14.972Z,1
2023-04-26T12:10:21.779Z,1
2023-04-26T12:11:28.630Z,1
2023-04-26T12:12:35.537Z,1
2023-04-26T12:13:42.365Z,1
2023-04-26T12:14:49.231Z,1
2023-04-26T12:15:56.185Z,1
2023-04-26T12:17:03.211Z,1
2023-04-26T12:18:10.056Z,1
2023-04-26T12:19:16.532Z,1
2023-04-26T12:20:23.507Z,1
2023-04-26T12:21:35.530Z,1
2023-04-26T12:22:45.005Z,1
2023-04-26T12:24:00.008Z,1
2023-04-26T12:25:06.940Z,1
2023-04-26T12:26:13.936Z,1
2023-04-26T12:27:20.844Z,1
2023-04-26T12:28:27.757Z,1
2023-04-26T12:29:34.537Z,1
2023-04-26T12:30:41.394Z,2
2023-04-26T12:31:48.293Z,1
2023-04-26T12:32:57.781Z,1
2023-04-26T12:34:02.945Z,1
2023-04-26T12:35:09.743Z,1
2023-04-26T12:36:16.573Z,1
2023-04-26T12:37:23.442Z,2
2023-04-26T12:38:30.233Z,3
2023-04-26T12:39:37.161Z,2
2023-04-26T12:40:46.850Z,1
2023-04-26T12:41:53.620Z,1
2023-04-26T12:43:00.547Z,1
2023-04-26T12:44:07.384Z,2
2023-04-26T12:45:14.157Z,2
2023-04-26T12:46:21.001Z,4
2023-04-26T12:47:27.927Z,5
2023-04-26T12:48:34.757Z,5
2023-04-26T12:49:41.539Z,8
2023-04-26T12:50:48.406Z,25
2023-04-26T12:51:55.221Z,12
2023-04-26T12:53:02.505Z,2
2023-04-26T12:54:09.297Z,1
2023-04-26T12:55:16.210Z,10
2023-04-26T12:56:22.996Z,25
2023-04-26T12:57:30.065Z,70
2023-04-26T12:58:36.960Z,98
2023-04-26T12:59:43.727Z,124
2023-04-26T13:00:50.537Z,4
2023-04-26T13:01:57.437Z,2
2023-04-26T13:03:04.220Z,6
2023-04-26T13:04:11.319Z,97
2023-04-26T13:05:17.818Z,18
2023-04-26T13:06:24.597Z,6
2023-04-26T13:07:31.450Z,52
2023-04-26T13:08:38.282Z,8
2023-04-26T13:09:45.102Z,14
2023-04-26T13:10:51.955Z,73
2023-04-26T13:11:58.807Z,81
2023-04-26T13:13:05.551Z,4
2023-04-26T13:14:13.220Z,2
2023-04-26T13:15:20.171Z,2
2023-04-26T13:16:27.066Z,2
2023-04-26T13:17:33.817Z,13
2023-04-26T13:18:40.642Z,19
2023-04-26T13:19:47.526Z,4
2023-04-26T13:20:54.413Z,2
2023-04-26T13:22:01.162Z,2
2023-04-26T13:23:08.070Z,2
2023-04-26T13:24:14.888Z,2
2023-04-26T13:25:21.671Z,1
2023-04-26T13:26:28.671Z,2
2023-04-26T13:27:35.451Z,5
2023-04-26T13:28:42.347Z,9
2023-04-26T13:29:49.186Z,5
2023-04-26T13:30:56.090Z,5
2023-04-26T13:32:03.029Z,6
2023-04-26T13:33:10.001Z,7
2023-04-26T13:34:16.782Z,4
2023-04-26T13:35:23.686Z,3
2023-04-26T13:36:30.410Z,4
2023-04-26T13:37:37.326Z,2
2023-04-26T13:38:44.186Z,3
2023-04-26T13:39:50.989Z,2
2023-04-26T13:40:57.825Z,4
2023-04-26T13:42:04.725Z,5
2023-04-26T13:43:11.577Z,3
2023-04-26T13:44:18.619Z,3
2023-04-26T13:45:25.460Z,2
2023-04-26T13:46:32.346Z,2
2023-04-26T13:47:39.187Z,2
2023-04-26T13:48:45.939Z,2
2023-04-26T13:49:52.823Z,1
2023-04-26T13:50:59.794Z,1
2023-04-26T13:52:06.689Z,1
2023-04-26T13:53:13.509Z,1
2023-04-26T13:54:20.336Z,2
2023-04-26T13:55:28.201Z,1
2023-04-26T13:56:35.042Z,1
2023-04-26T13:57:41.852Z,1
2023-04-26T13:58:48.673Z,1
2023-04-26T13:59:55.485Z,1
2023-04-26T14:01:02.430Z,1
2023-04-26T14:02:09.432Z,1
2023-04-26T14:03:16.237Z,1
2023-04-26T14:04:23.111Z,1
2023-04-26T14:05:29.823Z,1
2023-04-26T14:06:36.894Z,1
2023-04-26T14:07:43.721Z,1
2023-04-26T14:08:50.488Z,1
2023-04-26T14:09:57.261Z,1
2023-04-26T14:11:04.103Z,1
2023-04-26T14:12:10.910Z,1
2023-04-26T14:13:17.694Z,1
2023-04-26T14:14:32.480Z,1
2023-04-26T14:15:43.641Z,1
2023-04-26T14:16:50.467Z,1
2023-04-26T14:17:57.367Z,1
2023-04-26T14:19:04.229Z,1
2023-04-26T14:20:11.105Z,1
2023-04-26T14:21:17.912Z,2
2023-04-26T14:22:24.720Z,1
2023-04-26T14:23:31.631Z,1
2023-04-26T14:24:38.454Z,1
2023-04-26T14:25:45.209Z,1
2023-04-26T14:26:54.680Z,1
2023-04-26T14:28:01.537Z,2
2023-04-26T14:29:08.380Z,2
2023-04-26T14:30:15.274Z,2
2023-04-26T14:31:22.161Z,1
2023-04-26T14:32:28.974Z,1
2023-04-26T14:33:35.701Z,3
2023-04-26T14:34:42.528Z,9
2023-04-26T14:35:49.383Z,26
2023-04-26T14:36:56.202Z,8
2023-04-26T14:38:03.147Z,30
2023-04-26T14:39:10.040Z,82
2023-04-26T14:40:16.815Z,26
2023-04-26T14:41:23.752Z,40
2023-04-26T14:42:30.745Z,83
2023-04-26T14:43:37.514Z,89
2023-04-26T14:44:44.380Z,111
2023-04-26T14:45:51.173Z,64
2023-04-26T14:46:57.898Z,50
2023-04-26T14:48:04.754Z,61
2023-04-26T14:49:11.511Z,21
2023-04-26T14:50:18.360Z,43
2023-04-26T14:51:25.123Z,12
2023-04-26T14:52:31.964Z,19
2023-04-26T14:53:38.987Z,5
2023-04-26T14:54:45.726Z,1
2023-04-26T14:55:52.496Z,2
2023-04-26T14:57:02.220Z,1
2023-04-26T14:58:08.984Z,1
2023-04-26T14:59:15.764Z,1
2023-04-26T15:00:22.675Z,1
2023-04-26T15:01:29.580Z,1
2023-04-26T15:02:36.378Z,1
2023-04-26T15:03:43.255Z,1
2023-04-26T15:04:50.229Z,1
2023-04-26T15:05:56.730Z,1
2023-04-26T15:07:03.691Z,1
2023-04-26T15:08:10.480Z,1
2023-04-26T15:09:17.469Z,1
2023-04-26T15:10:24.222Z,1
2023-04-26T15:11:32.027Z,1
2023-04-26T15:12:38.863Z,1
2023-04-26T15:13:45.662Z,1
2023-04-26T15:14:52.459Z,1
2023-04-26T15:15:59.265Z,1
2023-04-26T15:17:06.042Z,1
2023-04-26T15:18:13.008Z,2
2023-04-26T15:19:19.711Z,1
2023-04-26T15:20:26.442Z,1
2023-04-26T15:21:33.265Z,1
2023-04-26T15:22:40.107Z,1
2023-04-26T15:23:46.969Z,1
2023-04-26T15:24:53.770Z,1
2023-04-26T15:26:00.503Z,1
2023-04-26T15:27:07.326Z,1
2023-04-26T15:28:15.389Z,1
2023-04-26T15:29:21.137Z,1
2023-04-26T15:30:28.023Z,1
2023-04-26T15:31:34.835Z,1
2023-04-26T15:32:41.674Z,1
2023-04-26T15:33:51.489Z,1
2023-04-26T15:34:58.345Z,1
2023-04-26T15:36:05.406Z,1
2023-04-26T15:37:12.348Z,1
2023-04-26T15:38:19.175Z,1
2023-04-26T15:39:25.999Z,1
2023-04-26T15:40:32.881Z,3
2023-04-26T15:41:39.807Z,2
2023-04-26T15:42:46.679Z,1
2023-04-26T15:43:53.533Z,1
2023-04-26T15:45:00.382Z,1
2023-04-26T15:46:07.410Z,2
2023-04-26T15:47:17.023Z,7
2023-04-26T15:48:23.829Z,5
2023-04-26T15:49:30.751Z,3
2023-04-26T15:50:38.778Z,2
2023-04-26T15:51:45.560Z,2
2023-04-26T15:52:52.403Z,2
2023-04-26T15:54:12.334Z,2
2023-04-26T15:55:19.665Z,2
2023-04-26T15:56:26.557Z,2
2023-04-26T15:57:33.381Z,3
2023-04-26T15:58:41.685Z,3
2023-04-26T15:59:46.961Z,2
2023-04-26T16:00:54.022Z,2
2023-04-26T16:02:01.276Z,3
2023-04-26T16:03:08.208Z,10
2023-04-26T16:04:15.128Z,11
2023-04-26T16:05:21.714Z,5
2023-04-26T16:06:28.519Z,2
2023-04-26T16:07:35.464Z,3
2023-04-26T16:08:42.278Z,2
2023-04-26T16:09:49.096Z,3
2023-04-26T16:10:56.052Z,3
2023-04-26T16:12:03.013Z,3
2023-04-26T16:13:09.905Z,4
2023-04-26T16:14:16.748Z,8
2023-04-26T16:15:24.531Z,6
2023-04-26T16:16:31.467Z,11
2023-04-26T16:17:38.347Z,10
2023-04-26T16:18:45.127Z,6
2023-04-26T16:19:52.121Z,8
2023-04-26T16:20:59.005Z,9
2023-04-26T16:22:06.261Z,4
2023-04-26T16:23:13.032Z,2
2023-04-26T16:24:19.863Z,7
2023-04-26T16:25:26.831Z,4
2023-04-26T16:26:33.625Z,5
2023-04-26T16:27:40.529Z,5
2023-04-26T16:28:47.353Z,6
2023-04-26T16:29:54.239Z,5
2023-04-26T16:31:01.225Z,4
2023-04-26T16:32:08.186Z,2
2023-04-26T16:33:15.017Z,2
2023-04-26T16:34:21.823Z,3